createdAt,value
2019-01-30T00:01:50.674Z,7.33
2019-01-30T00:04:20.270Z,9.77
2019-01-30T00:06:49.879Z,9.43
2019-01-30T00:09:19.469Z,8.50
2019-01-30T00:11:49.065Z,10.20
2019-01-30T00:14:18.650Z,8.53
2019-01-30T00:16:48.225Z,10.00
2019-01-30T00:19:17.799Z,10.37
2019-01-30T00:21:47.403Z,8.47
2019-01-30T00:24:16.979Z,11.47
2019-01-30T00:26:46.635Z,9.00
2019-01-30T00:29:16.204Z,8.73
2019-01-30T00:31:45.781Z,10.37
2019-01-30T00:34:15.357Z,8.07
2019-01-30T00:36:45.226Z,8.83
2019-01-30T00:39:14.836Z,10.90
2019-01-30T00:41:44.410Z,9.90
2019-01-30T00:44:14.074Z,9.97
2019-01-30T00:46:43.677Z,10.87
2019-01-30T00:49:13.254Z,8.13
2019-01-30T00:51:42.919Z,9.47
2019-01-30T00:54:12.591Z,8.93
2019-01-30T00:56:42.342Z,9.40
2019-01-30T00:59:11.814Z,8.97
2019-01-30T01:01:41.579Z,8.70
2019-01-30T01:04:14.381Z,9.03
2019-01-30T01:06:44.206Z,7.93
2019-01-30T01:09:33.159Z,13.37
2019-01-30T01:12:02.780Z,8.13
2019-01-30T01:14:32.347Z,7.73
2019-01-30T01:17:01.963Z,7.80
2019-01-30T01:19:31.631Z,7.07
2019-01-30T01:22:01.222Z,11.67
2019-01-30T01:24:31.052Z,9.20
2019-01-30T01:27:02.360Z,9.73
2019-01-30T01:29:32.072Z,8.27
2019-01-30T01:32:01.794Z,8.13
2019-01-30T01:34:31.401Z,9.23
2019-01-30T01:37:00.992Z,9.53
2019-01-30T01:39:30.565Z,5.27
2019-01-30T01:42:00.206Z,8.10
2019-01-30T01:44:29.821Z,7.43
2019-01-30T01:47:18.739Z,8.43
2019-01-30T01:49:48.299Z,8.33
2019-01-30T01:52:17.903Z,9.37
2019-01-30T01:54:49.411Z,9.13
2019-01-30T01:57:19.091Z,8.53
2019-01-30T01:59:48.728Z,8.77
2019-01-30T02:02:18.341Z,9.03
2019-01-30T02:04:47.917Z,10.63
2019-01-30T02:07:17.452Z,5.87
2019-01-30T02:09:47.055Z,7.57
2019-01-30T02:12:16.706Z,6.97
2019-01-30T02:14:46.299Z,6.73
2019-01-30T02:17:35.177Z,5.53
2019-01-30T02:20:07.997Z,6.23
2019-01-30T02:22:37.582Z,5.63
2019-01-30T02:25:11.631Z,6.20
2019-01-30T02:27:41.326Z,8.50
2019-01-30T02:30:15.436Z,7.90
2019-01-30T02:32:45.500Z,7.43
2019-01-30T02:35:34.360Z,5.87
2019-01-30T02:38:04.168Z,5.77
2019-01-30T02:40:53.002Z,6.33
2019-01-30T02:43:22.621Z,5.63
2019-01-30T02:45:52.200Z,6.93
2019-01-30T02:48:21.807Z,8.03
2019-01-30T02:50:51.396Z,5.37
2019-01-30T02:53:20.960Z,4.67
2019-01-30T02:55:53.311Z,6.37
2019-01-30T02:58:22.898Z,7.40
2019-01-30T03:00:59.455Z,6.27
2019-01-30T03:03:23.763Z,6.23
2019-01-30T03:05:53.610Z,7.13
2019-01-30T03:08:23.192Z,6.20
2019-01-30T03:10:52.836Z,6.53
2019-01-30T03:13:22.437Z,6.30
2019-01-30T03:15:52.002Z,7.67
2019-01-30T03:18:21.572Z,6.50
2019-01-30T03:20:52.965Z,7.07
2019-01-30T03:23:22.527Z,7.07
2019-01-30T03:25:52.118Z,5.97
2019-01-30T03:28:21.713Z,7.07
2019-01-30T03:30:51.527Z,6.03
2019-01-30T03:33:21.114Z,8.00
2019-01-30T03:35:50.693Z,7.20
2019-01-30T03:38:21.745Z,5.47
2019-01-30T03:40:51.509Z,9.37
2019-01-30T03:43:20.979Z,10.83
2019-01-30T03:45:50.561Z,6.27
2019-01-30T03:48:20.180Z,7.37
2019-01-30T03:50:51.538Z,6.27
2019-01-30T03:53:21.234Z,8.70
2019-01-30T03:55:50.855Z,6.60
2019-01-30T03:58:20.453Z,7.60
2019-01-30T04:00:50.032Z,7.67
2019-01-30T04:03:19.595Z,7.47
2019-01-30T04:05:49.384Z,7.40
2019-01-30T04:08:18.977Z,8.30
2019-01-30T04:10:48.544Z,9.73
2019-01-30T04:13:18.168Z,6.17
2019-01-30T04:15:47.708Z,6.87
2019-01-30T04:18:17.268Z,8.77
2019-01-30T04:20:47.073Z,9.80
2019-01-30T04:23:16.665Z,7.90
2019-01-30T04:25:52.484Z,7.73
2019-01-30T04:28:22.404Z,6.30
2019-01-30T04:30:51.977Z,6.87
2019-01-30T04:33:21.546Z,6.57
2019-01-30T04:35:51.115Z,6.87
2019-01-30T04:38:20.842Z,8.63
2019-01-30T04:40:50.443Z,6.73
2019-01-30T04:43:20.070Z,6.50
2019-01-30T04:45:49.648Z,7.63
2019-01-30T04:48:19.338Z,6.23
2019-01-30T04:50:48.954Z,9.03
2019-01-30T04:53:18.510Z,8.80
2019-01-30T04:55:48.111Z,7.63
2019-01-30T04:58:19.124Z,7.73
2019-01-30T05:00:48.739Z,7.23
2019-01-30T05:03:18.518Z,7.83
2019-01-30T05:05:48.126Z,9.73
2019-01-30T05:08:17.712Z,8.23
2019-01-30T05:10:47.347Z,9.37
2019-01-30T05:13:17.015Z,8.60
2019-01-30T05:15:46.590Z,10.00
2019-01-30T05:18:16.158Z,7.37
2019-01-30T05:20:45.810Z,8.83
2019-01-30T05:23:15.431Z,8.10
2019-01-30T05:25:44.977Z,6.93
2019-01-30T05:28:14.552Z,8.40
2019-01-30T05:30:44.193Z,7.57
2019-01-30T05:33:14.891Z,7.07
2019-01-30T05:35:44.654Z,7.57
2019-01-30T05:38:14.208Z,6.33
2019-01-30T05:40:43.970Z,6.43
2019-01-30T05:43:13.551Z,7.37
2019-01-30T05:45:43.122Z,8.17
2019-01-30T05:48:14.194Z,7.40
2019-01-30T05:50:43.876Z,8.03
2019-01-30T05:53:13.457Z,7.43
2019-01-30T05:55:43.050Z,7.93
2019-01-30T05:58:12.629Z,7.83
2019-01-30T06:00:42.820Z,11.93
2019-01-30T06:03:12.548Z,7.20
2019-01-30T06:05:42.374Z,8.43
2019-01-30T06:08:11.945Z,7.97
2019-01-30T06:10:41.521Z,7.27
2019-01-30T06:13:11.117Z,6.57
2019-01-30T06:15:40.754Z,8.57
2019-01-30T06:18:10.389Z,11.10
2019-01-30T06:20:40.046Z,7.23
2019-01-30T06:23:09.697Z,6.20
2019-01-30T06:25:39.305Z,7.67
2019-01-30T06:28:10.414Z,7.73
2019-01-30T06:30:39.990Z,7.60
2019-01-30T06:33:11.205Z,6.97
2019-01-30T06:35:41.424Z,7.53
2019-01-30T06:38:11.965Z,7.27
2019-01-30T06:40:41.618Z,7.07
2019-01-30T06:43:11.343Z,6.80
2019-01-30T06:45:40.959Z,6.27
2019-01-30T06:48:10.544Z,6.57
2019-01-30T06:50:40.977Z,6.63
2019-01-30T06:53:10.584Z,6.67
2019-01-30T06:55:40.145Z,8.07
2019-01-30T06:58:09.733Z,7.93
2019-01-30T07:00:41.042Z,5.73
2019-01-30T07:03:13.973Z,7.53
2019-01-30T07:05:45.114Z,7.67
2019-01-30T07:08:16.431Z,6.57
2019-01-30T07:10:46.043Z,8.07
2019-01-30T07:13:15.889Z,5.50
2019-01-30T07:15:46.979Z,7.23
2019-01-30T07:18:18.033Z,6.53
2019-01-30T07:20:49.202Z,7.37
2019-01-30T07:23:19.941Z,5.50
2019-01-30T07:25:55.487Z,7.57
2019-01-30T07:28:25.072Z,5.60
2019-01-30T07:30:54.797Z,7.03
2019-01-30T07:33:25.328Z,5.43
2019-01-30T07:36:14.188Z,5.70
2019-01-30T07:38:43.796Z,5.80
2019-01-30T07:41:13.376Z,7.67
2019-01-30T07:43:43.108Z,7.87
2019-01-30T07:46:12.720Z,7.60
2019-01-30T07:48:42.287Z,5.30
2019-01-30T07:51:11.893Z,6.23
2019-01-30T07:53:41.516Z,6.13
2019-01-30T07:56:11.145Z,6.10
2019-01-30T07:58:41.960Z,5.47
2019-01-30T08:01:11.544Z,4.63
2019-01-30T08:03:41.139Z,5.97
2019-01-30T08:06:10.852Z,8.17
2019-01-30T08:08:40.520Z,8.13
2019-01-30T08:11:16.040Z,5.20
2019-01-30T08:13:45.603Z,5.70
2019-01-30T08:16:15.199Z,6.93
2019-01-30T08:18:44.784Z,7.17
2019-01-30T08:21:21.601Z,5.83
2019-01-30T08:23:51.242Z,6.03
2019-01-30T08:26:21.134Z,6.83
2019-01-30T08:28:50.923Z,5.53
2019-01-30T08:31:20.588Z,6.33
2019-01-30T08:33:50.739Z,6.83
2019-01-30T08:36:20.758Z,5.47
2019-01-30T08:38:50.347Z,7.20
2019-01-30T08:41:19.913Z,6.20
2019-01-30T08:43:49.523Z,6.43
2019-01-30T08:46:19.249Z,6.50
2019-01-30T08:48:48.845Z,6.57
2019-01-30T08:51:18.440Z,6.93
2019-01-30T08:53:48.124Z,5.93
2019-01-30T08:56:17.985Z,7.17
2019-01-30T08:58:47.631Z,6.83
2019-01-30T09:01:17.633Z,5.27
2019-01-30T09:03:53.251Z,5.87
2019-01-30T09:06:22.819Z,5.90
2019-01-30T09:08:52.400Z,5.63
2019-01-30T09:11:21.981Z,7.07
2019-01-30T09:13:51.588Z,5.60
2019-01-30T09:16:21.174Z,6.57
2019-01-30T09:18:50.768Z,6.83
2019-01-30T09:21:20.326Z,6.97
2019-01-30T09:23:49.915Z,4.83
2019-01-30T09:26:19.523Z,6.87
2019-01-30T09:28:49.136Z,6.07
2019-01-30T09:31:18.762Z,5.63
2019-01-30T09:33:48.573Z,6.00
2019-01-30T09:36:18.131Z,6.00
2019-01-30T09:38:47.684Z,5.83
2019-01-30T09:41:18.337Z,5.77
2019-01-30T09:43:47.889Z,4.83
2019-01-30T09:46:17.475Z,5.17
2019-01-30T09:48:47.037Z,4.53
2019-01-30T09:51:16.713Z,6.07
2019-01-30T09:53:46.160Z,3.50
2019-01-30T09:56:15.782Z,3.70
2019-01-30T09:58:45.334Z,6.73
2019-01-30T10:01:14.966Z,5.23
2019-01-30T10:03:44.851Z,3.57
2019-01-30T10:06:14.448Z,3.47
2019-01-30T10:08:44.072Z,3.87
2019-01-30T10:11:13.689Z,4.20
2019-01-30T10:13:43.255Z,3.40
2019-01-30T10:16:12.830Z,3.57
2019-01-30T10:18:42.751Z,3.90
2019-01-30T10:21:12.475Z,3.03
2019-01-30T10:23:42.056Z,3.93
2019-01-30T10:26:11.924Z,4.73
2019-01-30T10:28:41.478Z,3.40
2019-01-30T10:31:11.105Z,3.87
2019-01-30T10:33:46.662Z,3.03
2019-01-30T10:36:12.244Z,3.50
2019-01-30T10:38:41.983Z,4.43
2019-01-30T10:41:12.027Z,3.70
2019-01-30T10:43:41.612Z,4.00
2019-01-30T10:46:11.363Z,2.90
2019-01-30T10:48:41.300Z,3.33
2019-01-30T10:51:30.237Z,4.67
2019-01-30T10:53:59.833Z,2.83
2019-01-30T10:56:30.909Z,3.13
2019-01-30T10:59:00.476Z,3.20
2019-01-30T11:01:30.200Z,2.90
2019-01-30T11:03:59.952Z,3.47
2019-01-30T11:06:29.526Z,3.43
2019-01-30T11:08:59.122Z,1.97
2019-01-30T11:11:28.744Z,1.70
2019-01-30T11:13:59.805Z,2.00
2019-01-30T11:16:29.475Z,2.50
2019-01-30T11:18:59.098Z,1.83
2019-01-30T11:21:28.794Z,2.07
2019-01-30T11:23:58.347Z,1.67
2019-01-30T11:26:28.177Z,1.40
2019-01-30T11:28:57.837Z,2.43
2019-01-30T11:31:27.545Z,1.90
2019-01-30T11:34:07.022Z,1.60
2019-01-30T11:36:28.459Z,1.00
2019-01-30T11:38:59.584Z,1.03
2019-01-30T11:41:29.200Z,1.20
2019-01-30T11:43:59.492Z,1.73
2019-01-30T11:46:29.094Z,0.80
2019-01-30T11:48:58.684Z,1.63
2019-01-30T11:51:28.902Z,1.10
2019-01-30T11:53:58.415Z,1.20
2019-01-30T11:56:28.072Z,1.00
2019-01-30T11:58:57.650Z,0.90
2019-01-30T12:01:27.313Z,1.57
2019-01-30T12:03:56.906Z,1.20
2019-01-30T12:06:26.452Z,1.27
2019-01-30T12:08:56.317Z,1.57
2019-01-30T12:11:25.957Z,1.20
2019-01-30T12:13:55.530Z,1.27
2019-01-30T12:16:25.180Z,1.20
2019-01-30T12:18:54.756Z,1.20
2019-01-30T12:21:24.336Z,1.30
2019-01-30T12:23:53.933Z,1.30
2019-01-30T12:26:23.500Z,1.90
2019-01-30T12:28:53.067Z,1.50
2019-01-30T12:31:22.666Z,1.40
2019-01-30T12:33:52.229Z,1.93
2019-01-30T12:36:21.806Z,1.67
2019-01-30T12:38:52.095Z,1.40
2019-01-30T12:41:22.279Z,1.50
2019-01-30T12:43:52.237Z,1.40
2019-01-30T12:46:21.861Z,1.50
2019-01-30T12:48:51.436Z,2.13
2019-01-30T12:51:22.964Z,1.40
2019-01-30T12:53:52.703Z,1.33
2019-01-30T12:56:22.292Z,1.40
2019-01-30T12:58:51.875Z,1.70
2019-01-30T13:01:22.421Z,1.40
2019-01-30T13:03:52.033Z,1.50
2019-01-30T13:06:21.683Z,1.50
2019-01-30T13:08:51.330Z,1.57
2019-01-30T13:11:20.909Z,1.50
2019-01-30T13:13:50.467Z,2.60
2019-01-30T13:16:22.712Z,1.90
2019-01-30T13:18:52.664Z,1.70
2019-01-30T13:21:22.280Z,1.60
2019-01-30T13:23:51.903Z,1.50
2019-01-30T13:26:21.592Z,2.03
2019-01-30T13:29:10.860Z,1.67
2019-01-30T13:31:59.726Z,1.50
2019-01-30T13:34:29.400Z,1.57
2019-01-30T13:36:58.985Z,1.53
2019-01-30T13:39:28.540Z,1.30
2019-01-30T13:41:58.150Z,1.20
2019-01-30T13:44:28.106Z,1.50
2019-01-30T13:46:57.952Z,1.30
2019-01-30T13:49:27.575Z,1.50
2019-01-30T13:51:57.161Z,1.60
2019-01-30T13:54:26.713Z,1.60
2019-01-30T13:56:56.333Z,1.40
2019-01-30T13:59:25.893Z,4.60
2019-01-30T14:01:55.456Z,1.60
2019-01-30T14:04:25.105Z,1.83
2019-01-30T14:06:54.806Z,1.60
2019-01-30T14:09:24.406Z,1.63
2019-01-30T14:11:54.067Z,1.63
2019-01-30T14:14:23.647Z,1.93
2019-01-30T14:16:53.247Z,3.00
2019-01-30T14:19:22.843Z,2.17
2019-01-30T14:21:52.379Z,2.00
2019-01-30T14:24:21.964Z,2.30
2019-01-30T14:26:51.592Z,3.37
2019-01-30T14:29:21.176Z,2.23
2019-01-30T14:31:50.774Z,2.20
2019-01-30T14:34:20.600Z,2.50
2019-01-30T14:36:50.302Z,2.40
2019-01-30T14:39:19.978Z,2.40
2019-01-30T14:41:49.727Z,2.70
2019-01-30T14:44:19.320Z,2.63
2019-01-30T14:46:50.516Z,2.83
2019-01-30T14:49:20.166Z,2.70
2019-01-30T14:51:51.293Z,2.97
2019-01-30T14:54:20.869Z,2.70
2019-01-30T14:56:50.548Z,2.70
2019-01-30T14:59:20.147Z,3.00
2019-01-30T15:01:50.398Z,2.90
2019-01-30T15:04:19.983Z,3.30
2019-01-30T15:06:49.564Z,3.57
2019-01-30T15:09:19.163Z,3.63
2019-01-30T15:11:48.801Z,3.50
2019-01-30T15:14:18.339Z,3.87
2019-01-30T15:16:49.373Z,3.17
2019-01-30T15:19:38.403Z,3.43
2019-01-30T15:22:08.111Z,3.40
2019-01-30T15:24:37.694Z,5.53
2019-01-30T15:27:07.464Z,3.83
2019-01-30T15:29:37.044Z,3.30
2019-01-30T15:32:06.659Z,2.70
2019-01-30T15:34:36.263Z,2.77
2019-01-30T15:37:05.953Z,3.73
2019-01-30T15:39:37.049Z,3.63
2019-01-30T15:42:06.851Z,3.13
2019-01-30T15:44:55.782Z,3.43
2019-01-30T15:47:25.371Z,3.23
2019-01-30T15:49:55.000Z,3.23
2019-01-30T15:52:24.654Z,2.70
2019-01-30T15:54:54.262Z,3.50
2019-01-30T15:57:23.848Z,2.93
2019-01-30T15:59:53.461Z,2.70
2019-01-30T16:02:23.137Z,2.73
2019-01-30T16:04:52.695Z,3.87
2019-01-30T16:07:22.283Z,3.17
2019-01-30T16:09:51.943Z,3.37
2019-01-30T16:12:21.560Z,3.17
2019-01-30T16:14:51.140Z,3.27
2019-01-30T16:17:20.812Z,4.10
2019-01-30T16:19:50.381Z,5.27
2019-01-30T16:22:20.112Z,4.07
2019-01-30T16:24:49.703Z,3.40
2019-01-30T16:27:22.049Z,3.20
2019-01-30T16:29:51.677Z,3.20
2019-01-30T16:32:21.300Z,5.83
2019-01-30T16:34:50.856Z,3.17
2019-01-30T16:37:20.513Z,4.37
2019-01-30T16:39:50.448Z,3.67
2019-01-30T16:42:20.031Z,3.37
2019-01-30T16:44:49.766Z,3.80
2019-01-30T16:47:21.495Z,3.97
2019-01-30T16:49:51.088Z,3.40
2019-01-30T16:52:20.675Z,3.30
2019-01-30T16:54:50.315Z,3.37
2019-01-30T16:57:19.969Z,5.17
2019-01-30T16:59:49.529Z,3.47
2019-01-30T17:02:19.198Z,3.90
2019-01-30T17:04:48.855Z,4.50
2019-01-30T17:07:18.428Z,4.93
2019-01-30T17:09:47.993Z,4.07
2019-01-30T17:12:17.584Z,6.23
2019-01-30T17:14:47.146Z,3.90
2019-01-30T17:17:16.797Z,4.17
2019-01-30T17:19:46.402Z,4.97
2019-01-30T17:22:16.133Z,4.30
2019-01-30T17:24:45.716Z,4.90
2019-01-30T17:27:15.326Z,4.07
2019-01-30T17:29:44.880Z,4.63
2019-01-30T17:32:14.477Z,5.03
2019-01-30T17:34:44.067Z,4.43
2019-01-30T17:37:13.685Z,6.30
2019-01-30T17:39:43.253Z,5.07
2019-01-30T17:42:12.849Z,5.17
2019-01-30T17:44:42.443Z,4.40
2019-01-30T17:47:12.584Z,6.70
2019-01-30T17:49:42.180Z,5.93
2019-01-30T17:52:11.761Z,6.33
2019-01-30T17:54:41.648Z,5.73
2019-01-30T17:57:11.396Z,4.80
2019-01-30T17:59:40.943Z,4.37
2019-01-30T18:02:14.423Z,6.40
2019-01-30T18:04:45.465Z,7.43
2019-01-30T18:07:15.112Z,4.87
2019-01-30T18:09:44.721Z,4.57
2019-01-30T18:12:14.319Z,4.73
2019-01-30T18:14:43.912Z,5.10
2019-01-30T18:17:13.577Z,6.17
2019-01-30T18:19:43.141Z,5.57
2019-01-30T18:22:12.817Z,6.90
2019-01-30T18:24:42.746Z,2.90
2019-01-30T18:27:12.502Z,5.60
2019-01-30T18:29:43.535Z,6.07
2019-01-30T18:32:13.513Z,8.03
2019-01-30T18:34:43.078Z,6.40
2019-01-30T18:37:13.431Z,8.00
2019-01-30T18:39:43.059Z,6.23
2019-01-30T18:42:12.617Z,5.33
2019-01-30T18:44:42.198Z,4.93
2019-01-30T18:47:11.769Z,6.93
2019-01-30T18:49:42.093Z,5.80
2019-01-30T18:52:11.738Z,6.63
2019-01-30T18:54:41.548Z,4.17
2019-01-30T18:57:11.231Z,6.00
2019-01-30T18:59:40.792Z,5.87
2019-01-30T19:02:12.909Z,6.70
2019-01-30T19:04:44.043Z,5.93
2019-01-30T19:07:13.646Z,3.77
2019-01-30T19:09:43.260Z,5.97
2019-01-30T19:12:12.996Z,6.90
2019-01-30T19:14:42.554Z,9.53
2019-01-30T19:17:13.620Z,6.13
2019-01-30T19:19:43.200Z,6.13
2019-01-30T19:22:14.251Z,6.50
2019-01-30T19:24:44.815Z,8.67
2019-01-30T19:27:14.389Z,6.93
2019-01-30T19:29:44.002Z,6.43
2019-01-30T19:32:13.641Z,6.33
2019-01-30T19:34:43.224Z,7.37
2019-01-30T19:37:12.856Z,7.10
2019-01-30T19:39:42.738Z,7.20
2019-01-30T19:42:12.367Z,5.67
2019-01-30T19:44:41.957Z,7.83
2019-01-30T19:47:11.547Z,6.93
2019-01-30T19:49:42.595Z,6.43
2019-01-30T19:52:12.172Z,6.53
2019-01-30T19:54:42.439Z,8.00
2019-01-30T19:57:12.023Z,8.80
2019-01-30T19:59:41.613Z,6.27
2019-01-30T20:04:48.016Z,5.47
2019-01-30T20:07:17.639Z,8.83
2019-01-30T20:09:47.068Z,6.33
2019-01-30T20:12:17.087Z,4.93
2019-01-30T20:14:46.674Z,7.50
2019-01-30T20:17:16.227Z,7.30
2019-01-30T20:19:45.865Z,7.20
2019-01-30T20:22:15.555Z,6.73
2019-01-30T20:24:45.137Z,9.23
2019-01-30T20:27:15.213Z,9.37
2019-01-30T20:29:45.736Z,8.20
2019-01-30T20:32:15.338Z,6.83
2019-01-30T20:34:44.959Z,7.00
2019-01-30T20:37:25.829Z,7.07
2019-01-30T20:39:47.310Z,10.73
2019-01-30T20:42:17.189Z,4.17
2019-01-30T20:45:09.567Z,5.83
2019-01-30T20:47:39.036Z,5.60
2019-01-30T20:50:13.356Z,7.77
2019-01-30T20:52:42.987Z,6.33
2019-01-30T20:55:16.004Z,6.90
2019-01-30T20:57:45.658Z,4.90
2019-01-30T21:00:20.002Z,7.23
2019-01-30T21:03:08.848Z,7.27
2019-01-30T21:05:40.042Z,5.50
2019-01-30T21:08:09.784Z,5.97
2019-01-30T21:10:40.919Z,8.90
2019-01-30T21:13:10.744Z,5.07
2019-01-30T21:15:59.980Z,4.47
2019-01-30T21:18:29.546Z,4.73
2019-01-30T21:20:59.104Z,4.87
2019-01-30T21:23:28.774Z,6.20
2019-01-30T21:25:58.361Z,7.77
2019-01-30T21:28:27.946Z,9.00
2019-01-30T21:30:57.558Z,7.87
2019-01-30T21:33:27.323Z,8.13
2019-01-30T21:35:56.920Z,5.77
2019-01-30T21:38:26.541Z,5.67
2019-01-30T21:40:56.106Z,5.93
2019-01-30T21:43:26.186Z,4.77
2019-01-30T21:45:57.243Z,7.73
2019-01-30T21:48:26.809Z,4.83
2019-01-30T21:50:56.456Z,5.27
2019-01-30T21:53:26.500Z,8.23
2019-01-30T21:55:56.267Z,4.43
2019-01-30T21:58:27.327Z,5.97
2019-01-30T22:00:58.430Z,6.43
2019-01-30T22:03:29.983Z,5.20
2019-01-30T22:05:59.584Z,7.20
2019-01-30T22:08:29.199Z,3.73
2019-01-30T22:10:58.757Z,6.00
2019-01-30T22:13:28.332Z,9.37
2019-01-30T22:15:57.940Z,5.97
2019-01-30T22:18:27.589Z,9.33
2019-01-30T22:20:57.254Z,5.83
2019-01-30T22:23:27.313Z,5.80
2019-01-30T22:25:56.904Z,7.33
2019-01-30T22:28:26.521Z,5.13
2019-01-30T22:31:15.489Z,11.67
2019-01-30T22:33:45.076Z,7.67
2019-01-30T22:36:14.662Z,9.03
2019-01-30T22:38:44.262Z,6.37
2019-01-30T22:41:13.936Z,5.13
2019-01-30T22:43:43.545Z,7.67
2019-01-30T22:46:13.128Z,5.17
2019-01-30T22:48:42.741Z,5.17
2019-01-30T22:51:12.332Z,8.67
2019-01-30T22:53:41.955Z,6.50
2019-01-30T22:56:11.562Z,6.27
2019-01-30T22:58:41.132Z,7.37
2019-01-30T23:01:16.217Z,5.80
2019-01-30T23:03:50.261Z,8.90
2019-01-30T23:06:25.246Z,6.97
2019-01-30T23:08:59.302Z,7.33
2019-01-30T23:11:33.383Z,6.57
2019-01-30T23:14:03.478Z,7.00
2019-01-30T23:16:37.863Z,5.47
2019-01-30T23:19:11.941Z,6.83
2019-01-30T23:21:45.998Z,6.63
2019-01-30T23:24:20.074Z,6.80
2019-01-30T23:26:54.123Z,6.30
2019-01-30T23:32:07.514Z,4.43
2019-01-30T23:34:59.334Z,5.83
2019-01-30T23:37:33.753Z,9.77
2019-01-30T23:40:08.149Z,7.10
2019-01-30T23:42:42.234Z,6.80
2019-01-30T23:45:16.284Z,7.10
2019-01-30T23:47:50.326Z,4.97
2019-01-30T23:50:24.408Z,4.83
2019-01-30T23:52:58.461Z,7.37
2019-01-30T23:55:32.497Z,5.83
2019-01-30T23:58:06.575Z,12.00
